sensor_id;sensor_type;location;lat;lon;timestamp;pressure;altitude;pressure_sealevel;temperature;humidity
79752;BME280;69234;47.446;21.636;2023-05-10T00:00:08;100961.38;;;9.74;66.17
79752;BME280;69234;47.446;21.636;2023-05-10T00:00:43;100973.19;;;9.71;65.80
79752;BME280;69234;47.446;21.636;2023-05-10T00:01:14;100968.91;;;9.69;66.20
79752;BME280;69234;47.446;21.636;2023-05-10T00:01:45;100956.81;;;9.63;65.71
79752;BME280;69234;47.446;21.636;2023-05-10T00:02:15;100967.94;;;9.70;65.94
79752;BME280;69234;47.446;21.636;2023-05-10T00:02:46;100960.97;;;9.67;66.33
79752;BME280;69234;47.446;21.636;2023-05-10T00:03:17;100966.22;;;9.69;65.89
79752;BME280;69234;47.446;21.636;2023-05-10T00:03:48;100965.47;;;9.67;66.63
79752;BME280;69234;47.446;21.636;2023-05-10T00:04:19;100961.69;;;9.69;66.35
79752;BME280;69234;47.446;21.636;2023-05-10T00:04:49;100967.19;;;9.68;65.92
79752;BME280;69234;47.446;21.636;2023-05-10T00:05:20;100964.38;;;9.69;65.70
79752;BME280;69234;47.446;21.636;2023-05-10T00:05:51;100957.44;;;9.67;65.77
79752;BME280;69234;47.446;21.636;2023-05-10T00:06:21;100964.16;;;9.72;65.64
79752;BME280;69234;47.446;21.636;2023-05-10T00:06:53;100965.00;;;9.73;66.58
79752;BME280;69234;47.446;21.636;2023-05-10T00:07:24;100966.84;;;9.72;66.96
79752;BME280;69234;47.446;21.636;2023-05-10T00:07:54;100962.59;;;9.70;67.09
79752;BME280;69234;47.446;21.636;2023-05-10T00:08:25;100959.16;;;9.68;66.73
79752;BME280;69234;47.446;21.636;2023-05-10T00:08:56;100964.28;;;9.71;66.64
79752;BME280;69234;47.446;21.636;2023-05-10T00:09:27;100960.63;;;9.72;66.38
79752;BME280;69234;47.446;21.636;2023-05-10T00:09:57;100953.44;;;9.72;66.43
79752;BME280;69234;47.446;21.636;2023-05-10T00:10:28;100956.97;;;9.73;66.94
79752;BME280;69234;47.446;21.636;2023-05-10T00:10:59;100962.34;;;9.73;67.19
79752;BME280;69234;47.446;21.636;2023-05-10T00:11:30;100963.44;;;9.70;67.13
79752;BME280;69234;47.446;21.636;2023-05-10T00:12:01;100950.25;;;9.67;67.10
79752;BME280;69234;47.446;21.636;2023-05-10T00:12:33;100960.63;;;9.72;66.96
79752;BME280;69234;47.446;21.636;2023-05-10T00:13:04;100960.75;;;9.70;67.22
79752;BME280;69234;47.446;21.636;2023-05-10T00:13:34;100955.38;;;9.70;67.34
79752;BME280;69234;47.446;21.636;2023-05-10T00:14:05;100960.63;;;9.72;67.54
79752;BME280;69234;47.446;21.636;2023-05-10T00:14:36;100962.34;;;9.73;67.37
79752;BME280;69234;47.446;21.636;2023-05-10T00:15:08;100960.75;;;9.70;66.97
79752;BME280;69234;47.446;21.636;2023-05-10T00:15:39;100958.06;;;9.70;66.98
79752;BME280;69234;47.446;21.636;2023-05-10T00:16:09;100950.03;;;9.70;67.14
79752;BME280;69234;47.446;21.636;2023-05-10T00:16:40;100957.94;;;9.72;67.28
79752;BME280;69234;47.446;21.636;2023-05-10T00:17:11;100960.75;;;9.70;67.16
79752;BME280;69234;47.446;21.636;2023-05-10T00:17:42;100961.59;;;9.71;67.65
79752;BME280;69234;47.446;21.636;2023-05-10T00:18:12;100955.38;;;9.70;67.88
79752;BME280;69234;47.446;21.636;2023-05-10T00:18:43;100953.66;;;9.69;67.87
79752;BME280;69234;47.446;21.636;2023-05-10T00:19:14;100954.53;;;9.70;67.57
79752;BME280;69234;47.446;21.636;2023-05-10T00:19:45;100953.44;;;9.72;68.13
79752;BME280;69234;47.446;21.636;2023-05-10T00:20:15;100955.16;;;9.73;67.47
79752;BME280;69234;47.446;21.636;2023-05-10T00:20:46;100955.25;;;9.72;67.57
79752;BME280;69234;47.446;21.636;2023-05-10T00:21:17;100950.88;;;9.71;67.85
79752;BME280;69234;47.446;21.636;2023-05-10T00:21:48;100956.13;;;9.72;68.06
79752;BME280;69234;47.446;21.636;2023-05-10T00:22:18;100948.28;;;9.69;68.45
79752;BME280;69234;47.446;21.636;2023-05-10T00:22:49;100950.13;;;9.69;67.90
79752;BME280;69234;47.446;21.636;2023-05-10T00:23:20;100959.22;;;9.66;69.03
79752;BME280;69234;47.446;21.636;2023-05-10T00:23:50;100949.47;;;9.65;68.30
79752;BME280;69234;47.446;21.636;2023-05-10T00:24:21;100949.69;;;9.62;68.65
79752;BME280;69234;47.446;21.636;2023-05-10T00:24:52;100952.50;;;9.61;68.15
79752;BME280;69234;47.446;21.636;2023-05-10T00:25:22;100945.31;;;9.61;68.16
79752;BME280;69234;47.446;21.636;2023-05-10T00:25:53;100946.72;;;9.67;68.24
79752;BME280;69234;47.446;21.636;2023-05-10T00:26:24;100944.75;;;9.69;68.11
79752;BME280;69234;47.446;21.636;2023-05-10T00:26:57;100950.03;;;9.70;68.39
79752;BME280;69234;47.446;21.636;2023-05-10T00:27:28;100947.13;;;9.73;67.69
79752;BME280;69234;47.446;21.636;2023-05-10T00:27:59;100952.50;;;9.73;68.56
79752;BME280;69234;47.446;21.636;2023-05-10T00:28:31;100947.13;;;9.73;68.50
79752;BME280;69234;47.446;21.636;2023-05-10T00:29:02;100944.44;;;9.73;68.34
79752;BME280;69234;47.446;21.636;2023-05-10T00:29:33;100952.50;;;9.73;68.25
79752;BME280;69234;47.446;21.636;2023-05-10T00:30:04;100947.13;;;9.73;69.15
79752;BME280;69234;47.446;21.636;2023-05-10T00:30:36;100952.38;;;9.75;68.96
79752;BME280;69234;47.446;21.636;2023-05-10T00:31:06;100942.69;;;9.72;68.37
79752;BME280;69234;47.446;21.636;2023-05-10T00:31:37;100947.84;;;9.75;68.80
79752;BME280;69234;47.446;21.636;2023-05-10T00:32:08;100948.06;;;9.72;68.79
79752;BME280;69234;47.446;21.636;2023-05-10T00:32:38;100948.06;;;9.72;68.91
79752;BME280;69234;47.446;21.636;2023-05-10T00:33:09;100946.03;;;9.76;68.95
79752;BME280;69234;47.446;21.636;2023-05-10T00:33:41;100951.16;;;9.79;68.81
79752;BME280;69234;47.446;21.636;2023-05-10T00:34:13;100938.81;;;9.76;68.07
79752;BME280;69234;47.446;21.636;2023-05-10T00:34:43;100947.50;;;9.80;68.05
79752;BME280;69234;47.446;21.636;2023-05-10T00:35:16;100942.03;;;9.82;69.19
79752;BME280;69234;47.446;21.636;2023-05-10T00:35:46;100944.94;;;9.79;68.97
79752;BME280;69234;47.446;21.636;2023-05-10T00:36:17;100951.16;;;9.79;69.52
79752;BME280;69234;47.446;21.636;2023-05-10T00:36:48;100941.63;;;9.75;69.79
79752;BME280;69234;47.446;21.636;2023-05-10T00:37:18;100947.84;;;9.75;68.60
79752;BME280;69234;47.446;21.636;2023-05-10T00:37:49;100949.56;;;9.76;69.04
79752;BME280;69234;47.446;21.636;2023-05-10T00:38:20;100953.00;;;9.79;69.24
79752;BME280;69234;47.446;21.636;2023-05-10T00:38:51;100950.44;;;9.77;69.15
79752;BME280;69234;47.446;21.636;2023-05-10T00:39:22;100953.22;;;9.75;69.42
79752;BME280;69234;47.446;21.636;2023-05-10T00:39:53;100954.06;;;9.76;69.46
79752;BME280;69234;47.446;21.636;2023-05-10T00:40:24;100956.66;;;9.77;69.25
79752;BME280;69234;47.446;21.636;2023-05-10T00:40:59;100947.75;;;9.77;69.20
79752;BME280;69234;47.446;21.636;2023-05-10T00:41:34;100952.00;;;9.80;69.09
79752;BME280;69234;47.446;21.636;2023-05-10T00:42:05;100952.00;;;9.80;69.16
79752;BME280;69234;47.446;21.636;2023-05-10T00:42:37;100951.06;;;9.81;68.93
79752;BME280;69234;47.446;21.636;2023-05-10T00:43:07;100949.34;;;9.80;69.08
79752;BME280;69234;47.446;21.636;2023-05-10T00:43:38;100949.25;;;9.81;69.30
79752;BME280;69234;47.446;21.636;2023-05-10T00:44:09;100953.63;;;9.82;69.71
79752;BME280;69234;47.446;21.636;2023-05-10T00:44:40;100949.97;;;9.83;69.07
79752;BME280;69234;47.446;21.636;2023-05-10T00:45:10;100941.81;;;9.85;69.10
79752;BME280;69234;47.446;21.636;2023-05-10T00:45:42;100951.47;;;9.87;69.03
79752;BME280;69234;47.446;21.636;2023-05-10T00:46:14;100942.69;;;9.85;68.99
79752;BME280;69234;47.446;21.636;2023-05-10T00:46:47;100949.44;;;9.91;68.98
79752;BME280;69234;47.446;21.636;2023-05-10T00:47:19;100950.50;;;9.88;69.19
79752;BME280;69234;47.446;21.636;2023-05-10T00:47:51;100937.94;;;9.89;68.81
79752;BME280;69234;47.446;21.636;2023-05-10T00:48:25;100954.66;;;9.92;69.40
79752;BME280;69234;47.446;21.636;2023-05-10T00:48:56;100950.16;;;9.93;69.40
79752;BME280;69234;47.446;21.636;2023-05-10T00:49:28;100938.78;;;9.89;69.40
79752;BME280;69234;47.446;21.636;2023-05-10T00:49:59;100952.13;;;9.91;69.52
79752;BME280;69234;47.446;21.636;2023-05-10T00:50:32;100952.97;;;9.91;69.89
79752;BME280;69234;47.446;21.636;2023-05-10T00:51:03;100952.97;;;9.91;68.91
79752;BME280;69234;47.446;21.636;2023-05-10T00:51:34;100946.75;;;9.91;69.17
79752;BME280;69234;47.446;21.636;2023-05-10T00:52:05;100952.13;;;9.91;69.46
79752;BME280;69234;47.446;21.636;2023-05-10T00:52:36;100952.13;;;9.91;69.69
79752;BME280;69234;47.446;21.636;2023-05-10T00:53:08;100951.88;;;9.94;69.58
79752;BME280;69234;47.446;21.636;2023-05-10T00:53:40;100950.91;;;9.95;70.13
79752;BME280;69234;47.446;21.636;2023-05-10T00:54:12;100955.53;;;9.93;69.47
79752;BME280;69234;47.446;21.636;2023-05-10T00:54:44;100950.78;;;9.96;69.73
79752;BME280;69234;47.446;21.636;2023-05-10T00:55:15;100948.00;;;9.98;69.78
79752;BME280;69234;47.446;21.636;2023-05-10T00:55:46;100946.28;;;9.97;69.37
79752;BME280;69234;47.446;21.636;2023-05-10T00:56:17;100950.69;;;9.98;69.38
79752;BME280;69234;47.446;21.636;2023-05-10T00:56:49;100952.28;;;10.00;69.86
79752;BME280;69234;47.446;21.636;2023-05-10T00:57:19;100943.38;;;10.00;69.47
79752;BME280;69234;47.446;21.636;2023-05-10T00:57:50;100955.72;;;10.03;69.68
79752;BME280;69234;47.446;21.636;2023-05-10T00:58:22;100944.13;;;10.02;69.89
79752;BME280;69234;47.446;21.636;2023-05-10T00:58:54;100943.91;;;10.05;69.23
79752;BME280;69234;47.446;21.636;2023-05-10T00:59:25;100942.16;;;10.04;69.29
79752;BME280;69234;47.446;21.636;2023-05-10T00:59:57;100932.06;;;10.08;68.81
79752;BME280;69234;47.446;21.636;2023-05-10T01:00:28;100944.31;;;10.12;68.60
79752;BME280;69234;47.446;21.636;2023-05-10T01:01:00;100940.63;;;10.13;69.10
79752;BME280;69234;47.446;21.636;2023-05-10T01:01:32;100942.25;;;10.15;68.59
79752;BME280;69234;47.446;21.636;2023-05-10T01:02:02;100946.63;;;10.16;69.21
79752;BME280;69234;47.446;21.636;2023-05-10T01:02:35;100943.94;;;10.16;69.03
79752;BME280;69234;47.446;21.636;2023-05-10T01:03:05;100940.19;;;10.19;68.58
79752;BME280;69234;47.446;21.636;2023-05-10T01:03:37;100948.13;;;10.20;68.61
79752;BME280;69234;47.446;21.636;2023-05-10T01:04:09;100946.28;;;10.21;68.92
79752;BME280;69234;47.446;21.636;2023-05-10T01:04:41;100947.13;;;10.21;69.54
79752;BME280;69234;47.446;21.636;2023-05-10T01:05:14;100937.59;;;10.17;69.93
79752;BME280;69234;47.446;21.636;2023-05-10T01:05:46;100948.13;;;10.20;69.86
79752;BME280;69234;47.446;21.636;2023-05-10T01:06:16;100948.13;;;10.20;69.61
79752;BME280;69234;47.446;21.636;2023-05-10T01:06:47;100949.94;;;10.20;70.25
79752;BME280;69234;47.446;21.636;2023-05-10T01:07:18;100951.78;;;10.19;69.42
79752;BME280;69234;47.446;21.636;2023-05-10T01:07:49;100944.59;;;10.20;69.69
79752;BME280;69234;47.446;21.636;2023-05-10T01:08:20;100947.88;;;10.23;69.09
79752;BME280;69234;47.446;21.636;2023-05-10T01:08:52;100945.06;;;10.25;68.95
79752;BME280;69234;47.446;21.636;2023-05-10T01:09:23;100947.69;;;10.27;69.23
79752;BME280;69234;47.446;21.636;2023-05-10T01:09:56;100944.88;;;10.28;69.07
79752;BME280;69234;47.446;21.636;2023-05-10T01:10:27;100952.09;;;10.28;68.90
79752;BME280;69234;47.446;21.636;2023-05-10T01:10:58;100946.00;;;10.26;70.32
79752;BME280;69234;47.446;21.636;2023-05-10T01:11:29;100946.84;;;10.26;69.64
79752;BME280;69234;47.446;21.636;2023-05-10T01:12:01;100940.63;;;10.26;69.96
79752;BME280;69234;47.446;21.636;2023-05-10T01:12:38;100953.91;;;10.27;69.68
79752;BME280;69234;47.446;21.636;2023-05-10T01:13:10;100942.09;;;10.30;68.90
79752;BME280;69234;47.446;21.636;2023-05-10T01:13:43;100945.72;;;10.29;69.07
79752;BME280;69234;47.446;21.636;2023-05-10T01:14:20;100950.88;;;10.32;69.09
79752;BME280;69234;47.446;21.636;2023-05-10T01:14:52;100944.44;;;10.34;68.98
79752;BME280;69234;47.446;21.636;2023-05-10T01:15:23;100954.94;;;10.37;68.52
79752;BME280;69234;47.446;21.636;2023-05-10T01:15:54;100951.50;;;10.35;69.23
79752;BME280;69234;47.446;21.636;2023-05-10T01:16:26;100947.03;;;10.36;69.71
79752;BME280;69234;47.446;21.636;2023-05-10T01:16:58;100956.03;;;10.35;70.06
79752;BME280;69234;47.446;21.636;2023-05-10T01:17:31;100946.50;;;10.31;69.87
79752;BME280;69234;47.446;21.636;2023-05-10T01:18:03;100956.25;;;10.32;69.05
79752;BME280;69234;47.446;21.636;2023-05-10T01:18:40;100951.00;;;10.30;69.85
79752;BME280;69234;47.446;21.636;2023-05-10T01:19:22;100950.03;;;10.31;69.22
79752;BME280;69234;47.446;21.636;2023-05-10T01:19:54;100948.94;;;10.34;70.02
79752;BME280;69234;47.446;21.636;2023-05-10T01:20:32;100945.50;;;10.32;69.65
79752;BME280;69234;47.446;21.636;2023-05-10T01:22:24;100950.03;;;10.31;70.21
79752;BME280;69234;47.446;21.636;2023-05-10T01:23:19;100946.13;;;10.35;70.04
79752;BME280;69234;47.446;21.636;2023-05-10T01:28:06;100948.03;;;10.46;69.36
79752;BME280;69234;47.446;21.636;2023-05-10T01:28:58;100949.75;;;10.47;68.87
79752;BME280;69234;47.446;21.636;2023-05-10T01:30:55;100935.09;;;10.51;68.59
79752;BME280;69234;47.446;21.636;2023-05-10T01:31:59;100934.88;;;10.54;68.51
79752;BME280;69234;47.446;21.636;2023-05-10T01:34:21;100936.19;;;10.48;67.89
79752;BME280;69234;47.446;21.636;2023-05-10T01:35:03;100937.56;;;10.54;67.84
79752;BME280;69234;47.446;21.636;2023-05-10T01:36:19;100944.75;;;10.54;68.31
79752;BME280;69234;47.446;21.636;2023-05-10T01:37:07;100936.09;;;10.50;68.17
79752;BME280;69234;47.446;21.636;2023-05-10T01:38:51;100928.88;;;10.51;68.51
79752;BME280;69234;47.446;21.636;2023-05-10T01:39:53;100937.91;;;10.50;68.03
79752;BME280;69234;47.446;21.636;2023-05-10T01:41:22;100935.22;;;10.50;68.30
79752;BME280;69234;47.446;21.636;2023-05-10T01:42:10;100944.38;;;10.47;68.21
79752;BME280;69234;47.446;21.636;2023-05-10T01:42:54;100937.28;;;10.46;68.23
79752;BME280;69234;47.446;21.636;2023-05-10T01:43:46;100936.41;;;10.45;68.46
79752;BME280;69234;47.446;21.636;2023-05-10T01:44:44;100941.78;;;10.45;69.17
79752;BME280;69234;47.446;21.636;2023-05-10T01:45:37;100935.78;;;10.42;68.61
79752;BME280;69234;47.446;21.636;2023-05-10T01:46:16;100930.41;;;10.42;68.85
79752;BME280;69234;47.446;21.636;2023-05-10T01:46:56;100935.16;;;10.38;68.59
79752;BME280;69234;47.446;21.636;2023-05-10T01:47:42;100940.31;;;10.41;68.42
79752;BME280;69234;47.446;21.636;2023-05-10T01:48:15;100941.50;;;10.37;69.43
79752;BME280;69234;47.446;21.636;2023-05-10T01:48:55;100935.41;;;10.35;68.99
79752;BME280;69234;47.446;21.636;2023-05-10T01:49:33;100936.50;;;10.33;68.40
79752;BME280;69234;47.446;21.636;2023-05-10T01:50:15;100930.03;;;10.35;68.73
79752;BME280;69234;47.446;21.636;2023-05-10T01:50:48;100929.16;;;10.35;68.65
79752;BME280;69234;47.446;21.636;2023-05-10T01:51:27;100940.03;;;10.33;68.83
79752;BME280;69234;47.446;21.636;2023-05-10T01:52:06;100943.81;;;10.31;68.94
79752;BME280;69234;47.446;21.636;2023-05-10T01:52:42;100939.28;;;10.31;69.02
79752;BME280;69234;47.446;21.636;2023-05-10T01:53:18;100940.28;;;10.30;68.84
79752;BME280;69234;47.446;21.636;2023-05-10T01:54:00;100938.56;;;10.29;69.22
79752;BME280;69234;47.446;21.636;2023-05-10T01:54:33;100933.28;;;10.28;69.32
79752;BME280;69234;47.446;21.636;2023-05-10T01:55:09;100940.38;;;10.29;68.62
79752;BME280;69234;47.446;21.636;2023-05-10T01:55:47;100939.63;;;10.27;68.79
79752;BME280;69234;47.446;21.636;2023-05-10T01:56:24;100930.75;;;10.26;69.47
79752;BME280;69234;47.446;21.636;2023-05-10T01:57:03;100932.63;;;10.24;69.19
79752;BME280;69234;47.446;21.636;2023-05-10T01:57:37;100934.59;;;10.22;69.05
79752;BME280;69234;47.446;21.636;2023-05-10T01:58:22;100936.53;;;10.20;69.42
79752;BME280;69234;47.446;21.636;2023-05-10T01:58:56;100931.91;;;10.22;69.07
79752;BME280;69234;47.446;21.636;2023-05-10T01:59:33;100934.69;;;10.20;69.84
79752;BME280;69234;47.446;21.636;2023-05-10T02:00:08;100942.75;;;10.20;69.79
79752;BME280;69234;47.446;21.636;2023-05-10T02:00:47;100930.53;;;10.16;69.63
79752;BME280;69234;47.446;21.636;2023-05-10T02:01:21;100933.09;;;10.18;70.01
79752;BME280;69234;47.446;21.636;2023-05-10T02:01:53;100933.22;;;10.16;69.28
79752;BME280;69234;47.446;21.636;2023-05-10T02:02:25;100933.97;;;10.18;69.48
79752;BME280;69234;47.446;21.636;2023-05-10T02:03:00;100933.22;;;10.16;69.48
79752;BME280;69234;47.446;21.636;2023-05-10T02:03:35;100925.50;;;10.12;70.14
79752;BME280;69234;47.446;21.636;2023-05-10T02:04:09;100926.47;;;10.11;70.16
79752;BME280;69234;47.446;21.636;2023-05-10T02:04:42;100931.84;;;10.11;69.53
79752;BME280;69234;47.446;21.636;2023-05-10T02:05:16;100918.53;;;10.09;70.17
79752;BME280;69234;47.446;21.636;2023-05-10T02:05:49;100928.41;;;10.09;70.02
79752;BME280;69234;47.446;21.636;2023-05-10T02:06:22;100922.28;;;10.07;69.48
79752;BME280;69234;47.446;21.636;2023-05-10T02:06:56;100924.13;;;10.06;70.09
79752;BME280;69234;47.446;21.636;2023-05-10T02:07:28;100933.78;;;10.09;70.38
79752;BME280;69234;47.446;21.636;2023-05-10T02:08:00;100927.78;;;10.05;69.76
79752;BME280;69234;47.446;21.636;2023-05-10T02:08:33;100926.81;;;10.06;69.89
79752;BME280;69234;47.446;21.636;2023-05-10T02:09:09;100932.41;;;10.03;70.69
79752;BME280;69234;47.446;21.636;2023-05-10T02:09:44;100928.88;;;10.03;70.52
79752;BME280;69234;47.446;21.636;2023-05-10T02:10:19;100928.03;;;10.02;70.04
79752;BME280;69234;47.446;21.636;2023-05-10T02:10:54;100925.44;;;10.00;70.58
79752;BME280;69234;47.446;21.636;2023-05-10T02:11:27;100928.25;;;9.99;70.85
79752;BME280;69234;47.446;21.636;2023-05-10T02:12:02;100926.31;;;10.01;70.75
79752;BME280;69234;47.446;21.636;2023-05-10T02:12:39;100926.31;;;10.01;70.56
79752;BME280;69234;47.446;21.636;2023-05-10T02:13:13;100922.75;;;10.00;70.87
79752;BME280;69234;47.446;21.636;2023-05-10T02:13:47;100924.81;;;9.97;70.93
79752;BME280;69234;47.446;21.636;2023-05-10T02:14:20;100923.84;;;9.98;70.88
79752;BME280;69234;47.446;21.636;2023-05-10T02:14:53;100921.25;;;9.96;70.98
79752;BME280;69234;47.446;21.636;2023-05-10T02:15:24;100925.91;;;9.94;70.45
79752;BME280;69234;47.446;21.636;2023-05-10T02:15:57;100925.91;;;9.94;70.96
79752;BME280;69234;47.446;21.636;2023-05-10T02:16:30;100927.72;;;9.94;70.71
79752;BME280;69234;47.446;21.636;2023-05-10T02:17:05;100930.53;;;9.92;70.80
79752;BME280;69234;47.446;21.636;2023-05-10T02:17:37;100926.97;;;9.92;70.86
79752;BME280;69234;47.446;21.636;2023-05-10T02:18:11;100926.13;;;9.91;71.07
79752;BME280;69234;47.446;21.636;2023-05-10T02:18:44;100920.00;;;9.89;71.02
79752;BME280;69234;47.446;21.636;2023-05-10T02:19:17;100915.50;;;9.90;70.59
79752;BME280;69234;47.446;21.636;2023-05-10T02:19:49;100924.31;;;9.92;70.86
79752;BME280;69234;47.446;21.636;2023-05-10T02:20:24;100925.28;;;9.91;70.59
79752;BME280;69234;47.446;21.636;2023-05-10T02:20:58;100922.81;;;9.88;71.29
79752;BME280;69234;47.446;21.636;2023-05-10T02:21:30;100927.22;;;9.89;71.30
79752;BME280;69234;47.446;21.636;2023-05-10T02:22:02;100923.66;;;9.88;71.54
79752;BME280;69234;47.446;21.636;2023-05-10T02:22:35;100924.03;;;9.84;71.69
79752;BME280;69234;47.446;21.636;2023-05-10T02:23:08;100921.22;;;9.85;71.10
79752;BME280;69234;47.446;21.636;2023-05-10T02:23:40;100925.72;;;9.85;71.44
79752;BME280;69234;47.446;21.636;2023-05-10T02:24:12;100923.13;;;9.83;71.28
79752;BME280;69234;47.446;21.636;2023-05-10T02:24:47;100922.28;;;9.83;71.77
79752;BME280;69234;47.446;21.636;2023-05-10T02:25:21;100916.28;;;9.79;71.89
79752;BME280;69234;47.446;21.636;2023-05-10T02:25:55;100927.88;;;9.80;71.46
79752;BME280;69234;47.446;21.636;2023-05-10T02:26:28;100930.56;;;9.80;71.77
79752;BME280;69234;47.446;21.636;2023-05-10T02:27:00;100927.88;;;9.80;72.06
79752;BME280;69234;47.446;21.636;2023-05-10T02:27:33;100921.66;;;9.79;71.95
79752;BME280;69234;47.446;21.636;2023-05-10T02:28:06;100931.75;;;9.75;71.74
79752;BME280;69234;47.446;21.636;2023-05-10T02:28:41;100925.41;;;9.76;72.14
79752;BME280;69234;47.446;21.636;2023-05-10T02:29:14;100924.56;;;9.76;72.37
79752;BME280;69234;47.446;21.636;2023-05-10T02:29:46;100928.97;;;9.77;72.00
79752;BME280;69234;47.446;21.636;2023-05-10T02:30:19;100927.25;;;9.76;71.86
79752;BME280;69234;47.446;21.636;2023-05-10T02:30:51;100921.78;;;9.77;71.72
79752;BME280;69234;47.446;21.636;2023-05-10T02:31:23;100922.72;;;9.76;72.43
79752;BME280;69234;47.446;21.636;2023-05-10T02:31:55;100926.38;;;9.75;71.98
79752;BME280;69234;47.446;21.636;2023-05-10T02:32:27;100919.31;;;9.74;71.71
79752;BME280;69234;47.446;21.636;2023-05-10T02:33:01;100911.72;;;9.68;71.80
79752;BME280;69234;47.446;21.636;2023-05-10T02:33:35;100912.97;;;9.75;72.12
79752;BME280;69234;47.446;21.636;2023-05-10T02:34:08;100926.38;;;9.75;72.06
79752;BME280;69234;47.446;21.636;2023-05-10T02:34:41;100921.88;;;9.76;71.75
79752;BME280;69234;47.446;21.636;2023-05-10T02:35:13;100929.06;;;9.75;72.29
79752;BME280;69234;47.446;21.636;2023-05-10T02:35:46;100926.38;;;9.75;72.50
79752;BME280;69234;47.446;21.636;2023-05-10T02:36:19;100922.97;;;9.73;72.04
79752;BME280;69234;47.446;21.636;2023-05-10T02:36:53;100926.59;;;9.72;72.17
79752;BME280;69234;47.446;21.636;2023-05-10T02:37:25;100917.84;;;9.70;72.63
79752;BME280;69234;47.446;21.636;2023-05-10T02:37:58;100923.19;;;9.70;72.03
79752;BME280;69234;47.446;21.636;2023-05-10T02:38:32;100919.66;;;9.70;72.87
79752;BME280;69234;47.446;21.636;2023-05-10T02:39:03;100919.75;;;9.68;72.77
79752;BME280;69234;47.446;21.636;2023-05-10T02:39:35;100915.47;;;9.66;72.76
79752;BME280;69234;47.446;21.636;2023-05-10T02:40:08;100920.50;;;9.70;72.35
79752;BME280;69234;47.446;21.636;2023-05-10T02:40:42;100919.66;;;9.70;72.62
79752;BME280;69234;47.446;21.636;2023-05-10T02:41:14;100926.81;;;9.69;72.57
79752;BME280;69234;47.446;21.636;2023-05-10T02:41:46;100922.44;;;9.68;72.33
79752;BME280;69234;47.446;21.636;2023-05-10T02:42:22;100920.59;;;9.69;72.90
79752;BME280;69234;47.446;21.636;2023-05-10T02:42:56;100925.97;;;9.69;72.28
79752;BME280;69234;47.446;21.636;2023-05-10T02:43:32;100921.47;;;9.69;72.36
79752;BME280;69234;47.446;21.636;2023-05-10T02:44:06;100928.56;;;9.70;72.28
79752;BME280;69234;47.446;21.636;2023-05-10T02:44:41;100926.81;;;9.69;72.74
79752;BME280;69234;47.446;21.636;2023-05-10T02:45:17;100912.16;;;9.62;72.46
79752;BME280;69234;47.446;21.636;2023-05-10T02:45:48;100925.97;;;9.69;72.34
79752;BME280;69234;47.446;21.636;2023-05-10T02:46:19;100927.72;;;9.70;72.71
79752;BME280;69234;47.446;21.636;2023-05-10T02:46:50;100926.09;;;9.67;72.26
79752;BME280;69234;47.446;21.636;2023-05-10T02:47:21;100924.91;;;9.71;72.74
79752;BME280;69234;47.446;21.636;2023-05-10T02:47:52;100924.16;;;9.69;72.75
79752;BME280;69234;47.446;21.636;2023-05-10T02:48:25;100933.06;;;9.70;72.81
79752;BME280;69234;47.446;21.636;2023-05-10T02:48:56;100926.59;;;9.72;72.61
79752;BME280;69234;47.446;21.636;2023-05-10T02:49:26;100920.50;;;9.70;72.32
79752;BME280;69234;47.446;21.636;2023-05-10T02:49:57;100926.72;;;9.71;72.71
79752;BME280;69234;47.446;21.636;2023-05-10T02:50:31;100922.66;;;9.65;72.47
79752;BME280;69234;47.446;21.636;2023-05-10T02:51:06;100927.94;;;9.67;72.85
79752;BME280;69234;47.446;21.636;2023-05-10T02:51:49;100930.50;;;9.68;72.92
79752;BME280;69234;47.446;21.636;2023-05-10T02:52:28;100926.59;;;9.72;73.08
79752;BME280;69234;47.446;21.636;2023-05-10T02:53:02;100922.44;;;9.68;72.96
79752;BME280;69234;47.446;21.636;2023-05-10T02:53:36;100917.28;;;9.65;72.70
79752;BME280;69234;47.446;21.636;2023-05-10T02:54:15;100927.81;;;9.68;72.89
79752;BME280;69234;47.446;21.636;2023-05-10T02:54:52;100925.97;;;9.69;72.55
79752;BME280;69234;47.446;21.636;2023-05-10T02:55:31;100919.75;;;9.68;72.43
79752;BME280;69234;47.446;21.636;2023-05-10T02:56:19;100923.41;;;9.67;72.89
79752;BME280;69234;47.446;21.636;2023-05-10T02:56:56;100924.38;;;9.66;73.15
79752;BME280;69234;47.446;21.636;2023-05-10T02:57:33;100922.78;;;9.64;72.81
79752;BME280;69234;47.446;21.636;2023-05-10T02:58:04;100923.63;;;9.64;73.28
79752;BME280;69234;47.446;21.636;2023-05-10T02:58:35;100926.09;;;9.67;73.42
79752;BME280;69234;47.446;21.636;2023-05-10T02:59:06;100921.94;;;9.63;73.71
79752;BME280;69234;47.446;21.636;2023-05-10T02:59:37;100929.00;;;9.64;73.86
79752;BME280;69234;47.446;21.636;2023-05-10T03:00:08;100918.50;;;9.61;73.36
79752;BME280;69234;47.446;21.636;2023-05-10T03:00:39;100922.56;;;9.67;73.41
79752;BME280;69234;47.446;21.636;2023-05-10T03:01:10;100916.31;;;9.66;72.68
79752;BME280;69234;47.446;21.636;2023-05-10T03:01:41;100925.25;;;9.67;73.25
79752;BME280;69234;47.446;21.636;2023-05-10T03:02:14;100928.78;;;9.67;73.23
79752;BME280;69234;47.446;21.636;2023-05-10T03:02:46;100913.88;;;9.63;72.95
79752;BME280;69234;47.446;21.636;2023-05-10T03:03:16;100924.16;;;9.69;72.83
79752;BME280;69234;47.446;21.636;2023-05-10T03:03:47;100923.19;;;9.70;72.67
79752;BME280;69234;47.446;21.636;2023-05-10T03:04:18;100924.16;;;9.69;73.30
79752;BME280;69234;47.446;21.636;2023-05-10T03:04:49;100920.59;;;9.69;73.39
79752;BME280;69234;47.446;21.636;2023-05-10T03:05:20;100920.59;;;9.69;72.94